sensor_id;sensor_type;location;lat;lon;timestamp;temperature;humidity
11005;DHT22;5555;59.622;16.556;2022-11-20T00:01:22;1.00;99.90
11005;DHT22;5555;59.622;16.556;2022-11-20T00:03:48;1.00;99.90
11005;DHT22;5555;59.622;16.556;2022-11-20T00:06:16;1.00;99.90
11005;DHT22;5555;59.622;16.556;2022-11-20T00:08:42;1.00;99.90
11005;DHT22;5555;59.622;16.556;2022-11-20T00:11:20;1.00;99.90
11005;DHT22;5555;59.622;16.556;2022-11-20T00:13:48;1.00;99.90
11005;DHT22;5555;59.622;16.556;2022-11-20T00:16:16;1.00;99.90
11005;DHT22;5555;59.622;16.556;2022-11-20T00:18:42;0.90;99.90
11005;DHT22;5555;59.622;16.556;2022-11-20T00:21:18;0.90;99.90
11005;DHT22;5555;59.622;16.556;2022-11-20T00:23:44;0.90;99.90
11005;DHT22;5555;59.622;16.556;2022-11-20T00:26:13;0.90;99.90
11005;DHT22;5555;59.622;16.556;2022-11-20T00:28:39;0.90;99.90
11005;DHT22;5555;59.622;16.556;2022-11-20T00:31:08;0.90;99.90
11005;DHT22;5555;59.622;16.556;2022-11-20T00:33:34;0.90;99.90
11005;DHT22;5555;59.622;16.556;2022-11-20T00:36:01;0.90;99.90
11005;DHT22;5555;59.622;16.556;2022-11-20T00:38:27;0.90;99.90
11005;DHT22;5555;59.622;16.556;2022-11-20T00:40:57;0.90;99.90
11005;DHT22;5555;59.622;16.556;2022-11-20T00:43:23;0.90;99.90
11005;DHT22;5555;59.622;16.556;2022-11-20T00:45:49;0.90;99.90
11005;DHT22;5555;59.622;16.556;2022-11-20T00:48:14;0.90;99.90
11005;DHT22;5555;59.622;16.556;2022-11-20T00:50:41;0.90;99.90
11005;DHT22;5555;59.622;16.556;2022-11-20T00:53:07;0.90;99.90
11005;DHT22;5555;59.622;16.556;2022-11-20T00:55:32;0.90;99.90
11005;DHT22;5555;59.622;16.556;2022-11-20T00:57:58;0.90;99.90
11005;DHT22;5555;59.622;16.556;2022-11-20T01:00:24;0.90;99.90
11005;DHT22;5555;59.622;16.556;2022-11-20T01:02:49;0.90;99.90
11005;DHT22;5555;59.622;16.556;2022-11-20T01:05:15;1.00;99.90
11005;DHT22;5555;59.622;16.556;2022-11-20T01:07:40;0.90;99.90
11005;DHT22;5555;59.622;16.556;2022-11-20T01:10:06;0.90;99.90
11005;DHT22;5555;59.622;16.556;2022-11-20T01:12:32;0.90;99.90
11005;DHT22;5555;59.622;16.556;2022-11-20T01:14:58;0.90;99.90
11005;DHT22;5555;59.622;16.556;2022-11-20T01:17:23;0.90;99.90
11005;DHT22;5555;59.622;16.556;2022-11-20T01:19:49;0.90;99.90
11005;DHT22;5555;59.622;16.556;2022-11-20T01:22:16;0.90;99.90
11005;DHT22;5555;59.622;16.556;2022-11-20T01:24:42;0.90;99.90
11005;DHT22;5555;59.622;16.556;2022-11-20T01:27:07;0.90;99.90
11005;DHT22;5555;59.622;16.556;2022-11-20T01:29:33;0.90;99.90
11005;DHT22;5555;59.622;16.556;2022-11-20T01:31:58;0.90;99.90
11005;DHT22;5555;59.622;16.556;2022-11-20T01:34:24;0.90;99.90
11005;DHT22;5555;59.622;16.556;2022-11-20T01:36:51;0.80;99.90
11005;DHT22;5555;59.622;16.556;2022-11-20T01:39:20;0.90;99.90
11005;DHT22;5555;59.622;16.556;2022-11-20T01:41:47;0.90;99.90
11005;DHT22;5555;59.622;16.556;2022-11-20T01:47:15;0.80;99.90
11005;DHT22;5555;59.622;16.556;2022-11-20T01:49:54;0.80;99.90
11005;DHT22;5555;59.622;16.556;2022-11-20T01:52:33;0.60;99.90
11005;DHT22;5555;59.622;16.556;2022-11-20T01:55:11;0.60;99.90
11005;DHT22;5555;59.622;16.556;2022-11-20T01:57:38;0.70;99.90
11005;DHT22;5555;59.622;16.556;2022-11-20T02:00:11;0.70;99.90
11005;DHT22;5555;59.622;16.556;2022-11-20T02:02:38;0.70;99.90
11005;DHT22;5555;59.622;16.556;2022-11-20T02:05:19;0.80;99.90
11005;DHT22;5555;59.622;16.556;2022-11-20T02:07:46;0.80;99.90
11005;DHT22;5555;59.622;16.556;2022-11-20T02:10:12;0.80;99.90
11005;DHT22;5555;59.622;16.556;2022-11-20T02:12:38;0.90;99.90
11005;DHT22;5555;59.622;16.556;2022-11-20T02:15:22;0.90;99.90
11005;DHT22;5555;59.622;16.556;2022-11-20T02:17:48;1.00;99.90
11005;DHT22;5555;59.622;16.556;2022-11-20T02:20:14;1.00;99.90
11005;DHT22;5555;59.622;16.556;2022-11-20T02:22:50;0.90;99.90
11005;DHT22;5555;59.622;16.556;2022-11-20T02:25:19;0.90;99.90
11005;DHT22;5555;59.622;16.556;2022-11-20T02:27:46;0.90;99.90
11005;DHT22;5555;59.622;16.556;2022-11-20T02:30:12;0.90;99.90
11005;DHT22;5555;59.622;16.556;2022-11-20T02:32:38;0.90;99.90
11005;DHT22;5555;59.622;16.556;2022-11-20T02:35:09;0.90;99.90
11005;DHT22;5555;59.622;16.556;2022-11-20T02:37:38;0.90;99.90
11005;DHT22;5555;59.622;16.556;2022-11-20T02:40:06;0.90;99.90
11005;DHT22;5555;59.622;16.556;2022-11-20T02:42:32;0.90;99.90
11005;DHT22;5555;59.622;16.556;2022-11-20T02:44:57;0.90;99.90
11005;DHT22;5555;59.622;16.556;2022-11-20T02:47:23;0.90;99.90
11005;DHT22;5555;59.622;16.556;2022-11-20T02:49:48;0.90;99.90
11005;DHT22;5555;59.622;16.556;2022-11-20T02:52:14;0.90;99.90
11005;DHT22;5555;59.622;16.556;2022-11-20T02:54:39;0.80;99.90
11005;DHT22;5555;59.622;16.556;2022-11-20T02:57:05;0.90;99.90
11005;DHT22;5555;59.622;16.556;2022-11-20T02:59:31;0.90;99.90
11005;DHT22;5555;59.622;16.556;2022-11-20T03:01:56;0.80;99.90
11005;DHT22;5555;59.622;16.556;2022-11-20T03:04:22;0.80;99.90
11005;DHT22;5555;59.622;16.556;2022-11-20T03:06:48;0.80;99.90
11005;DHT22;5555;59.622;16.556;2022-11-20T03:09:13;0.80;99.90
11005;DHT22;5555;59.622;16.556;2022-11-20T03:11:39;0.70;99.90
11005;DHT22;5555;59.622;16.556;2022-11-20T03:14:05;0.60;99.90
11005;DHT22;5555;59.622;16.556;2022-11-20T03:16:31;0.60;99.90
11005;DHT22;5555;59.622;16.556;2022-11-20T03:18:58;0.60;99.90
11005;DHT22;5555;59.622;16.556;2022-11-20T03:21:23;0.50;99.90
11005;DHT22;5555;59.622;16.556;2022-11-20T03:23:49;0.60;99.90
11005;DHT22;5555;59.622;16.556;2022-11-20T03:26:19;0.50;99.90
11005;DHT22;5555;59.622;16.556;2022-11-20T03:28:50;0.50;99.90
11005;DHT22;5555;59.622;16.556;2022-11-20T03:31:17;0.50;99.90
11005;DHT22;5555;59.622;16.556;2022-11-20T03:33:44;0.50;99.90
11005;DHT22;5555;59.622;16.556;2022-11-20T03:36:12;0.50;99.90
11005;DHT22;5555;59.622;16.556;2022-11-20T03:38:38;0.50;99.90
11005;DHT22;5555;59.622;16.556;2022-11-20T03:41:12;0.50;99.90
11005;DHT22;5555;59.622;16.556;2022-11-20T03:43:38;0.50;99.90
11005;DHT22;5555;59.622;16.556;2022-11-20T03:46:05;0.60;99.90
11005;DHT22;5555;59.622;16.556;2022-11-20T03:48:31;0.60;99.90
11005;DHT22;5555;59.622;16.556;2022-11-20T03:51:20;0.60;99.90
11005;DHT22;5555;59.622;16.556;2022-11-20T03:53:48;0.60;99.90
11005;DHT22;5555;59.622;16.556;2022-11-20T03:56:15;0.60;99.90
11005;DHT22;5555;59.622;16.556;2022-11-20T03:58:42;0.60;99.90
11005;DHT22;5555;59.622;16.556;2022-11-20T04:01:13;0.60;99.90
11005;DHT22;5555;59.622;16.556;2022-11-20T04:03:40;0.60;99.90
11005;DHT22;5555;59.622;16.556;2022-11-20T04:06:08;0.60;99.90
11005;DHT22;5555;59.622;16.556;2022-11-20T04:08:35;0.60;99.90
11005;DHT22;5555;59.622;16.556;2022-11-20T04:11:23;0.60;99.90
11005;DHT22;5555;59.622;16.556;2022-11-20T04:13:52;0.60;99.90
11005;DHT22;5555;59.622;16.556;2022-11-20T04:16:18;0.60;99.90
11005;DHT22;5555;59.622;16.556;2022-11-20T04:18:44;0.60;99.90
11005;DHT22;5555;59.622;16.556;2022-11-20T04:21:10;0.60;99.90
11005;DHT22;5555;59.622;16.556;2022-11-20T04:23:36;0.60;99.90
11005;DHT22;5555;59.622;16.556;2022-11-20T04:28:32;0.60;99.90
11005;DHT22;5555;59.622;16.556;2022-11-20T04:31:12;0.50;99.90
11005;DHT22;5555;59.622;16.556;2022-11-20T04:33:39;0.50;99.90
11005;DHT22;5555;59.622;16.556;2022-11-20T04:36:13;0.50;99.90
11005;DHT22;5555;59.622;16.556;2022-11-20T04:38:39;0.50;99.90
11005;DHT22;5555;59.622;16.556;2022-11-20T04:41:07;0.50;99.90
11005;DHT22;5555;59.622;16.556;2022-11-20T04:43:33;0.50;99.90
11005;DHT22;5555;59.622;16.556;2022-11-20T04:46:00;0.50;99.90
11005;DHT22;5555;59.622;16.556;2022-11-20T04:48:27;0.50;99.90
11005;DHT22;5555;59.622;16.556;2022-11-20T04:50:54;0.50;99.90
11005;DHT22;5555;59.622;16.556;2022-11-20T04:53:20;0.50;99.90
11005;DHT22;5555;59.622;16.556;2022-11-20T04:55:46;0.50;99.90
11005;DHT22;5555;59.622;16.556;2022-11-20T04:58:12;0.50;99.90
11005;DHT22;5555;59.622;16.556;2022-11-20T05:00:38;0.50;99.90
11005;DHT22;5555;59.622;16.556;2022-11-20T05:03:05;0.50;99.90
11005;DHT22;5555;59.622;16.556;2022-11-20T05:05:31;0.40;99.90
11005;DHT22;5555;59.622;16.556;2022-11-20T05:07:57;0.40;99.90
11005;DHT22;5555;59.622;16.556;2022-11-20T05:10:27;0.40;99.90
11005;DHT22;5555;59.622;16.556;2022-11-20T05:12:52;0.40;99.90
11005;DHT22;5555;59.622;16.556;2022-11-20T05:15:18;0.40;99.90
11005;DHT22;5555;59.622;16.556;2022-11-20T05:17:48;0.40;99.90
11005;DHT22;5555;59.622;16.556;2022-11-20T05:20:14;0.40;99.90
11005;DHT22;5555;59.622;16.556;2022-11-20T05:22:40;0.40;99.90
11005;DHT22;5555;59.622;16.556;2022-11-20T05:25:06;0.40;99.90
11005;DHT22;5555;59.622;16.556;2022-11-20T05:27:31;0.40;99.90
11005;DHT22;5555;59.622;16.556;2022-11-20T05:29:57;0.40;99.90
11005;DHT22;5555;59.622;16.556;2022-11-20T05:32:23;0.40;99.90
11005;DHT22;5555;59.622;16.556;2022-11-20T05:34:53;0.30;99.90
11005;DHT22;5555;59.622;16.556;2022-11-20T05:37:19;0.30;99.90
11005;DHT22;5555;59.622;16.556;2022-11-20T05:39:44;0.30;99.90
11005;DHT22;5555;59.622;16.556;2022-11-20T05:42:10;0.30;99.90
11005;DHT22;5555;59.622;16.556;2022-11-20T05:44:54;0.20;99.90
11005;DHT22;5555;59.622;16.556;2022-11-20T05:47:20;0.30;99.90
11005;DHT22;5555;59.622;16.556;2022-11-20T05:49:45;0.30;99.90
11005;DHT22;5555;59.622;16.556;2022-11-20T05:52:11;0.20;99.90
11005;DHT22;5555;59.622;16.556;2022-11-20T05:54:37;0.20;99.90
11005;DHT22;5555;59.622;16.556;2022-11-20T05:57:02;0.20;99.90
11005;DHT22;5555;59.622;16.556;2022-11-20T05:59:28;0.20;99.90
11005;DHT22;5555;59.622;16.556;2022-11-20T06:01:53;0.30;99.90
11005;DHT22;5555;59.622;16.556;2022-11-20T06:04:19;0.20;99.90
11005;DHT22;5555;59.622;16.556;2022-11-20T06:06:45;0.20;99.90
11005;DHT22;5555;59.622;16.556;2022-11-20T06:09:10;0.20;99.90
11005;DHT22;5555;59.622;16.556;2022-11-20T06:11:36;0.20;99.90
11005;DHT22;5555;59.622;16.556;2022-11-20T06:14:02;0.30;99.90
11005;DHT22;5555;59.622;16.556;2022-11-20T06:16:27;0.30;99.90
11005;DHT22;5555;59.622;16.556;2022-11-20T06:18:53;0.30;99.90
11005;DHT22;5555;59.622;16.556;2022-11-20T06:21:20;0.30;99.90
11005;DHT22;5555;59.622;16.556;2022-11-20T06:23:46;0.30;99.90
11005;DHT22;5555;59.622;16.556;2022-11-20T06:26:15;0.40;99.90
11005;DHT22;5555;59.622;16.556;2022-11-20T06:28:41;0.40;99.90
11005;DHT22;5555;59.622;16.556;2022-11-20T06:31:07;0.40;99.90
11005;DHT22;5555;59.622;16.556;2022-11-20T06:33:35;0.40;99.90
11005;DHT22;5555;59.622;16.556;2022-11-20T06:36:01;0.40;99.90
11005;DHT22;5555;59.622;16.556;2022-11-20T06:38:28;0.50;99.90
11005;DHT22;5555;59.622;16.556;2022-11-20T06:40:54;0.50;99.90
11005;DHT22;5555;59.622;16.556;2022-11-20T06:43:20;0.50;99.90
11005;DHT22;5555;59.622;16.556;2022-11-20T06:45:58;0.60;99.90
11005;DHT22;5555;59.622;16.556;2022-11-20T06:48:25;0.60;99.90
11005;DHT22;5555;59.622;16.556;2022-11-20T06:50:51;0.60;99.90
11005;DHT22;5555;59.622;16.556;2022-11-20T06:53:17;0.60;99.90
11005;DHT22;5555;59.622;16.556;2022-11-20T06:55:44;0.60;99.90
11005;DHT22;5555;59.622;16.556;2022-11-20T06:58:10;0.60;99.90
11005;DHT22;5555;59.622;16.556;2022-11-20T07:00:35;0.60;99.90
11005;DHT22;5555;59.622;16.556;2022-11-20T07:03:05;0.60;99.90
11005;DHT22;5555;59.622;16.556;2022-11-20T07:05:31;0.70;99.90
11005;DHT22;5555;59.622;16.556;2022-11-20T07:07:57;0.70;99.90
11005;DHT22;5555;59.622;16.556;2022-11-20T07:10:23;0.70;99.90
11005;DHT22;5555;59.622;16.556;2022-11-20T07:12:50;0.70;99.90
11005;DHT22;5555;59.622;16.556;2022-11-20T07:15:16;0.60;99.90
11005;DHT22;5555;59.622;16.556;2022-11-20T07:17:42;0.70;99.90
11005;DHT22;5555;59.622;16.556;2022-11-20T07:20:08;0.70;99.90
11005;DHT22;5555;59.622;16.556;2022-11-20T07:22:34;0.70;99.90
11005;DHT22;5555;59.622;16.556;2022-11-20T07:25:00;0.70;99.90
11005;DHT22;5555;59.622;16.556;2022-11-20T07:27:27;0.70;99.90
11005;DHT22;5555;59.622;16.556;2022-11-20T07:29:52;0.80;99.90
11005;DHT22;5555;59.622;16.556;2022-11-20T07:32:18;0.80;99.90
11005;DHT22;5555;59.622;16.556;2022-11-20T07:34:44;0.80;99.90
11005;DHT22;5555;59.622;16.556;2022-11-20T07:37:09;0.80;99.90
11005;DHT22;5555;59.622;16.556;2022-11-20T07:39:35;0.80;99.90
11005;DHT22;5555;59.622;16.556;2022-11-20T07:42:01;0.80;99.90
11005;DHT22;5555;59.622;16.556;2022-11-20T07:44:26;0.80;99.90
11005;DHT22;5555;59.622;16.556;2022-11-20T07:46:52;0.80;99.90
11005;DHT22;5555;59.622;16.556;2022-11-20T07:49:17;0.80;99.90
11005;DHT22;5555;59.622;16.556;2022-11-20T07:51:43;0.80;99.90
11005;DHT22;5555;59.622;16.556;2022-11-20T07:54:09;0.80;99.90
11005;DHT22;5555;59.622;16.556;2022-11-20T07:56:34;0.80;99.90
11005;DHT22;5555;59.622;16.556;2022-11-20T07:59:00;0.80;99.90
11005;DHT22;5555;59.622;16.556;2022-11-20T08:01:25;0.80;99.90
11005;DHT22;5555;59.622;16.556;2022-11-20T08:03:51;0.80;99.90
11005;DHT22;5555;59.622;16.556;2022-11-20T08:06:17;0.80;99.90
11005;DHT22;5555;59.622;16.556;2022-11-20T08:08:44;0.90;99.90
11005;DHT22;5555;59.622;16.556;2022-11-20T08:11:10;0.90;99.90
11005;DHT22;5555;59.622;16.556;2022-11-20T08:13:54;0.90;99.90
11005;DHT22;5555;59.622;16.556;2022-11-20T08:16:49;0.90;99.90
11005;DHT22;5555;59.622;16.556;2022-11-20T08:19:16;0.90;99.90
11005;DHT22;5555;59.622;16.556;2022-11-20T08:21:43;0.90;99.90
11005;DHT22;5555;59.622;16.556;2022-11-20T08:24:09;0.90;99.90
11005;DHT22;5555;59.622;16.556;2022-11-20T08:26:36;0.90;99.90
11005;DHT22;5555;59.622;16.556;2022-11-20T08:29:03;1.00;99.90
11005;DHT22;5555;59.622;16.556;2022-11-20T08:31:29;0.90;99.90
11005;DHT22;5555;59.622;16.556;2022-11-20T08:33:55;1.00;99.90
11005;DHT22;5555;59.622;16.556;2022-11-20T08:36:22;0.90;99.90
11005;DHT22;5555;59.622;16.556;2022-11-20T08:38:55;1.00;99.90
11005;DHT22;5555;59.622;16.556;2022-11-20T08:41:21;1.00;99.90
11005;DHT22;5555;59.622;16.556;2022-11-20T08:43:57;1.00;99.90
11005;DHT22;5555;59.622;16.556;2022-11-20T08:46:25;0.90;99.90
11005;DHT22;5555;59.622;16.556;2022-11-20T08:48:51;0.90;99.90
11005;DHT22;5555;59.622;16.556;2022-11-20T08:51:18;0.90;99.90
11005;DHT22;5555;59.622;16.556;2022-11-20T08:53:44;1.00;99.90
11005;DHT22;5555;59.622;16.556;2022-11-20T08:56:10;0.90;99.90
11005;DHT22;5555;59.622;16.556;2022-11-20T08:58:37;0.80;99.90
11005;DHT22;5555;59.622;16.556;2022-11-20T09:01:03;0.90;99.90
11005;DHT22;5555;59.622;16.556;2022-11-20T09:03:29;0.90;99.90
11005;DHT22;5555;59.622;16.556;2022-11-20T09:06:07;0.90;99.90
11005;DHT22;5555;59.622;16.556;2022-11-20T09:08:34;0.90;99.90
11005;DHT22;5555;59.622;16.556;2022-11-20T09:11:01;0.80;99.90
11005;DHT22;5555;59.622;16.556;2022-11-20T09:13:29;0.90;99.90
11005;DHT22;5555;59.622;16.556;2022-11-20T09:15:57;0.90;99.90
11005;DHT22;5555;59.622;16.556;2022-11-20T09:18:24;0.80;99.90
11005;DHT22;5555;59.622;16.556;2022-11-20T09:20:50;0.80;99.90
11005;DHT22;5555;59.622;16.556;2022-11-20T09:23:16;0.80;99.90
11005;DHT22;5555;59.622;16.556;2022-11-20T09:25:42;0.80;99.90
11005;DHT22;5555;59.622;16.556;2022-11-20T09:28:09;0.80;99.90
11005;DHT22;5555;59.622;16.556;2022-11-20T09:30:34;0.80;99.90
11005;DHT22;5555;59.622;16.556;2022-11-20T09:33:00;0.80;99.90
11005;DHT22;5555;59.622;16.556;2022-11-20T09:35:26;0.70;99.90
11005;DHT22;5555;59.622;16.556;2022-11-20T09:37:51;0.70;99.90
11005;DHT22;5555;59.622;16.556;2022-11-20T09:40:23;0.70;99.90
11005;DHT22;5555;59.622;16.556;2022-11-20T09:43:03;0.70;99.90
11005;DHT22;5555;59.622;16.556;2022-11-20T09:45:58;0.70;99.90
11005;DHT22;5555;59.622;16.556;2022-11-20T09:56:26;0.70;99.90
11005;DHT22;5555;59.622;16.556;2022-11-20T09:58:55;0.60;99.90
11005;DHT22;5555;59.622;16.556;2022-11-20T10:01:29;0.70;99.90
11005;DHT22;5555;59.622;16.556;2022-11-20T10:04:18;0.70;99.90
11005;DHT22;5555;59.622;16.556;2022-11-20T10:07:11;0.60;99.90
11005;DHT22;5555;59.622;16.556;2022-11-20T10:09:42;0.60;99.90
11005;DHT22;5555;59.622;16.556;2022-11-20T10:30:37;0.80;99.90
11005;DHT22;5555;59.622;16.556;2022-11-20T10:33:28;0.80;99.90
11005;DHT22;5555;59.622;16.556;2022-11-20T10:38:34;0.80;99.90
11005;DHT22;5555;59.622;16.556;2022-11-20T10:41:02;0.80;99.90
11005;DHT22;5555;59.622;16.556;2022-11-20T10:43:49;0.70;99.90
11005;DHT22;5555;59.622;16.556;2022-11-20T10:46:19;0.80;99.90
11005;DHT22;5555;59.622;16.556;2022-11-20T10:48:48;0.80;99.90
11005;DHT22;5555;59.622;16.556;2022-11-20T10:54:12;0.90;99.90
11005;DHT22;5555;59.622;16.556;2022-11-20T10:56:46;0.90;99.90
11005;DHT22;5555;59.622;16.556;2022-11-20T11:02:32;0.80;99.90
11005;DHT22;5555;59.622;16.556;2022-11-20T11:05:08;0.90;99.90
11005;DHT22;5555;59.622;16.556;2022-11-20T11:07:38;0.90;99.90
11005;DHT22;5555;59.622;16.556;2022-11-20T11:10:15;0.90;99.90
11005;DHT22;5555;59.622;16.556;2022-11-20T11:12:46;0.80;99.90
11005;DHT22;5555;59.622;16.556;2022-11-20T11:15:28;0.90;99.90
11005;DHT22;5555;59.622;16.556;2022-11-20T11:17:54;0.80;99.90
11005;DHT22;5555;59.622;16.556;2022-11-20T11:20:22;0.80;99.90
11005;DHT22;5555;59.622;16.556;2022-11-20T11:22:52;0.80;99.90
11005;DHT22;5555;59.622;16.556;2022-11-20T11:27:53;0.90;99.90
11005;DHT22;5555;59.622;16.556;2022-11-20T11:30:22;0.90;99.90
11005;DHT22;5555;59.622;16.556;2022-11-20T11:32:48;0.90;99.90
11005;DHT22;5555;59.622;16.556;2022-11-20T11:35:21;1.00;99.90
11005;DHT22;5555;59.622;16.556;2022-11-20T11:37:47;1.00;99.90
11005;DHT22;5555;59.622;16.556;2022-11-20T11:40:15;1.00;99.90
11005;DHT22;5555;59.622;16.556;2022-11-20T11:42:50;1.00;99.90
11005;DHT22;5555;59.622;16.556;2022-11-20T11:45:17;1.00;99.90
11005;DHT22;5555;59.622;16.556;2022-11-20T11:55:09;0.90;99.90
11005;DHT22;5555;59.622;16.556;2022-11-20T11:57:51;0.90;99.90
11005;DHT22;5555;59.622;16.556;2022-11-20T12:00:21;0.90;99.90
11005;DHT22;5555;59.622;16.556;2022-11-20T12:05:23;0.80;99.90
11005;DHT22;5555;59.622;16.556;2022-11-20T12:13:34;0.80;99.90
11005;DHT22;5555;59.622;16.556;2022-11-20T12:16:03;0.80;99.90
11005;DHT22;5555;59.622;16.556;2022-11-20T12:18:30;0.80;99.90
11005;DHT22;5555;59.622;16.556;2022-11-20T12:21:28;0.80;99.90
11005;DHT22;5555;59.622;16.556;2022-11-20T12:26:43;0.70;99.90
11005;DHT22;5555;59.622;16.556;2022-11-20T12:35:52;0.70;99.90
11005;DHT22;5555;59.622;16.556;2022-11-20T12:41:11;0.70;99.90
11005;DHT22;5555;59.622;16.556;2022-11-20T12:43:55;0.70;99.90
11005;DHT22;5555;59.622;16.556;2022-11-20T12:46:47;0.70;99.90
11005;DHT22;5555;59.622;16.556;2022-11-20T12:52:11;0.60;99.90
11005;DHT22;5555;59.622;16.556;2022-11-20T12:57:25;0.60;99.90
11005;DHT22;5555;59.622;16.556;2022-11-20T13:05:37;0.70;99.90
11005;DHT22;5555;59.622;16.556;2022-11-20T13:08:11;0.70;99.90
11005;DHT22;5555;59.622;16.556;2022-11-20T13:13:39;0.70;99.90
11005;DHT22;5555;59.622;16.556;2022-11-20T13:16:19;0.70;99.90
11005;DHT22;5555;59.622;16.556;2022-11-20T13:18:50;0.70;99.90
11005;DHT22;5555;59.622;16.556;2022-11-20T13:21:18;0.70;99.90
11005;DHT22;5555;59.622;16.556;2022-11-20T13:23:44;0.80;99.90
11005;DHT22;5555;59.622;16.556;2022-11-20T13:26:28;0.80;99.90
11005;DHT22;5555;59.622;16.556;2022-11-20T13:29:11;0.80;99.90
11005;DHT22;5555;59.622;16.556;2022-11-20T13:31:43;0.70;99.90
11005;DHT22;5555;59.622;16.556;2022-11-20T13:34:12;0.80;99.90
11005;DHT22;5555;59.622;16.556;2022-11-20T13:36:56;0.70;99.90
11005;DHT22;5555;59.622;16.556;2022-11-20T13:39:26;0.80;99.90
11005;DHT22;5555;59.622;16.556;2022-11-20T13:41:57;0.80;99.90
11005;DHT22;5555;59.622;16.556;2022-11-20T13:44:53;0.80;99.90
11005;DHT22;5555;59.622;16.556;2022-11-20T13:47:24;0.70;99.90
11005;DHT22;5555;59.622;16.556;2022-11-20T13:49:52;0.70;99.90
11005;DHT22;5555;59.622;16.556;2022-11-20T13:57:56;0.80;99.90
11005;DHT22;5555;59.622;16.556;2022-11-20T14:00:24;0.70;99.90
11005;DHT22;5555;59.622;16.556;2022-11-20T14:05:34;0.70;99.90
11005;DHT22;5555;59.622;16.556;2022-11-20T14:08:03;0.70;99.90
11005;DHT22;5555;59.622;16.556;2022-11-20T14:10:31;0.70;99.90
11005;DHT22;5555;59.622;16.556;2022-11-20T14:12:56;0.70;99.90
11005;DHT22;5555;59.622;16.556;2022-11-20T14:15:29;0.70;99.90
11005;DHT22;5555;59.622;16.556;2022-11-20T14:17:55;0.70;99.90
11005;DHT22;5555;59.622;16.556;2022-11-20T14:20:25;0.70;99.90
11005;DHT22;5555;59.622;16.556;2022-11-20T14:22:52;0.70;99.90
11005;DHT22;5555;59.622;16.556;2022-11-20T14:27:51;0.70;99.90
11005;DHT22;5555;59.622;16.556;2022-11-20T14:30:26;0.70;99.90
11005;DHT22;5555;59.622;16.556;2022-11-20T14:32:55;0.70;99.90
11005;DHT22;5555;59.622;16.556;2022-11-20T14:35:27;0.70;99.90
11005;DHT22;5555;59.622;16.556;2022-11-20T14:37:54;0.70;99.90
11005;DHT22;5555;59.622;16.556;2022-11-20T14:42:49;0.70;99.90
11005;DHT22;5555;59.622;16.556;2022-11-20T14:45:15;0.70;99.90
11005;DHT22;5555;59.622;16.556;2022-11-20T14:47:42;0.70;99.90
11005;DHT22;5555;59.622;16.556;2022-11-20T14:50:35;0.70;99.90
11005;DHT22;5555;59.622;16.556;2022-11-20T14:53:01;0.70;99.90
11005;DHT22;5555;59.622;16.556;2022-11-20T14:55:35;0.70;99.90
11005;DHT22;5555;59.622;16.556;2022-11-20T14:58:04;0.70;99.90
11005;DHT22;5555;59.622;16.556;2022-11-20T15:00:32;0.70;99.90
11005;DHT22;5555;59.622;16.556;2022-11-20T15:02:58;0.70;99.90
11005;DHT22;5555;59.622;16.556;2022-11-20T15:05:38;0.70;99.90
11005;DHT22;5555;59.622;16.556;2022-11-20T15:08:10;0.70;99.90
11005;DHT22;5555;59.622;16.556;2022-11-20T15:10:37;0.70;99.90
11005;DHT22;5555;59.622;16.556;2022-11-20T15:13:12;0.70;99.90
11005;DHT22;5555;59.622;16.556;2022-11-20T15:15:48;0.70;99.90
11005;DHT22;5555;59.622;16.556;2022-11-20T15:18:21;0.70;99.90
11005;DHT22;5555;59.622;16.556;2022-11-20T15:20:47;0.70;99.90
11005;DHT22;5555;59.622;16.556;2022-11-20T15:23:18;0.70;99.90
11005;DHT22;5555;59.622;16.556;2022-11-20T15:25:45;0.70;99.90
11005;DHT22;5555;59.622;16.556;2022-11-20T15:28:24;0.70;99.90
11005;DHT22;5555;59.622;16.556;2022-11-20T15:30:52;0.70;99.90
11005;DHT22;5555;59.622;16.556;2022-11-20T15:33:18;0.70;99.90
11005;DHT22;5555;59.622;16.556;2022-11-20T15:35:44;0.70;99.90
11005;DHT22;5555;59.622;16.556;2022-11-20T15:38:10;0.70;99.90
11005;DHT22;5555;59.622;16.556;2022-11-20T15:40:36;0.70;99.90
11005;DHT22;5555;59.622;16.556;2022-11-20T15:43:02;0.70;99.90
11005;DHT22;5555;59.622;16.556;2022-11-20T15:48:01;0.70;99.90
11005;DHT22;5555;59.622;16.556;2022-11-20T15:50:33;0.70;99.90
11005;DHT22;5555;59.622;16.556;2022-11-20T15:52:59;0.70;99.90
11005;DHT22;5555;59.622;16.556;2022-11-20T15:55:25;0.70;99.90
11005;DHT22;5555;59.622;16.556;2022-11-20T15:57:51;0.70;99.90
11005;DHT22;5555;59.622;16.556;2022-11-20T16:00:17;0.70;99.90
11005;DHT22;5555;59.622;16.556;2022-11-20T16:02:43;0.70;99.90
11005;DHT22;5555;59.622;16.556;2022-11-20T16:05:12;0.70;99.90
11005;DHT22;5555;59.622;16.556;2022-11-20T16:07:38;0.70;99.90
11005;DHT22;5555;59.622;16.556;2022-11-20T16:10:04;0.70;99.90
11005;DHT22;5555;59.622;16.556;2022-11-20T16:12:30;0.70;99.90
11005;DHT22;5555;59.622;16.556;2022-11-20T16:15:14;0.70;99.90
11005;DHT22;5555;59.622;16.556;2022-11-20T16:17:58;0.70;99.90
11005;DHT22;5555;59.622;16.556;2022-11-20T16:20:24;0.70;99.90
11005;DHT22;5555;59.622;16.556;2022-11-20T16:22:49;0.70;99.90
11005;DHT22;5555;59.622;16.556;2022-11-20T16:25:15;0.70;99.90
11005;DHT22;5555;59.622;16.556;2022-11-20T16:27:41;0.70;99.90
11005;DHT22;5555;59.622;16.556;2022-11-20T16:30:07;0.70;99.90
11005;DHT22;5555;59.622;16.556;2022-11-20T16:32:33;0.70;99.90
11005;DHT22;5555;59.622;16.556;2022-11-20T16:34:58;0.70;99.90
11005;DHT22;5555;59.622;16.556;2022-11-20T16:37:24;0.70;99.90
11005;DHT22;5555;59.622;16.556;2022-11-20T16:39:50;0.70;99.90
11005;DHT22;5555;59.622;16.556;2022-11-20T16:42:15;0.70;99.90
11005;DHT22;5555;59.622;16.556;2022-11-20T16:44:41;0.70;99.90
11005;DHT22;5555;59.622;16.556;2022-11-20T16:47:06;0.70;99.90
11005;DHT22;5555;59.622;16.556;2022-11-20T16:49:32;0.70;99.90
11005;DHT22;5555;59.622;16.556;2022-11-20T16:51:58;0.70;99.90
11005;DHT22;5555;59.622;16.556;2022-11-20T16:54:24;0.70;99.90
11005;DHT22;5555;59.622;16.556;2022-11-20T16:56:49;0.60;99.90
11005;DHT22;5555;59.622;16.556;2022-11-20T16:59:17;0.60;99.90
11005;DHT22;5555;59.622;16.556;2022-11-20T17:01:43;0.60;99.90
11005;DHT22;5555;59.622;16.556;2022-11-20T17:04:09;0.60;99.90
11005;DHT22;5555;59.622;16.556;2022-11-20T17:06:37;0.60;99.90
11005;DHT22;5555;59.622;16.556;2022-11-20T17:09:05;0.60;99.90
11005;DHT22;5555;59.622;16.556;2022-11-20T17:11:34;0.60;99.90
11005;DHT22;5555;59.622;16.556;2022-11-20T17:14:00;0.60;99.90
11005;DHT22;5555;59.622;16.556;2022-11-20T17:16:28;0.60;99.90
11005;DHT22;5555;59.622;16.556;2022-11-20T17:18:55;0.60;99.90
11005;DHT22;5555;59.622;16.556;2022-11-20T17:21:21;0.60;99.90
11005;DHT22;5555;59.622;16.556;2022-11-20T17:23:47;0.60;99.90
11005;DHT22;5555;59.622;16.556;2022-11-20T17:26:18;0.60;99.90
11005;DHT22;5555;59.622;16.556;2022-11-20T17:28:51;0.60;99.90
11005;DHT22;5555;59.622;16.556;2022-11-20T17:31:17;0.60;99.90
11005;DHT22;5555;59.622;16.556;2022-11-20T17:33:44;0.50;99.90
11005;DHT22;5555;59.622;16.556;2022-11-20T17:36:12;0.50;99.90